Time;durP1;ratioP1;P1;durP2;ratioP2;P2;SDS_P1;SDS_P2;PMS_P1;PMS_P2;Temp;Humidity;BMP_temperature;BMP_pressure;BME280_temperature;BME280_humidity;BME280_pressure;Samples;Min_cycle;Max_cycle;Signal;HPM_P1;HPM_P2
2021/03/13 05:01:04;;;;;;;;;;;7.40;99.90;;;;;;5715498;22;19988;-64
2021/03/13 05:03:30;;;;;;;;;;;7.40;99.90;;;;;;5015338;28;19926;-63
2021/03/13 05:05:56;;;;;;;;;;;7.40;99.90;;;;;;5015266;28;19932;-64
2021/03/13 05:08:22;;;;;;;;;;;7.40;99.90;;;;;;5030280;22;19929;-63
2021/03/13 05:10:48;;;;;;;;;;;7.40;99.90;;;;;;5015398;28;19927;-63
2021/03/13 05:13:14;;;;;;;;;;;7.40;99.90;;;;;;5014651;28;19937;-62
2021/03/13 05:15:40;;;;;;;;;;;7.50;99.90;;;;;;5014374;28;19926;-63
2021/03/13 05:18:07;;;;;;;;;;;7.50;99.90;;;;;;5014355;28;19925;-63
2021/03/13 05:20:33;;;;;;;;;;;7.50;99.90;;;;;;5014245;28;19932;-62
2021/03/13 05:22:59;;;;;;;;;;;7.50;99.90;;;;;;5014080;28;19932;-62
2021/03/13 05:25:25;;;;;;;;;;;7.50;99.90;;;;;;5014018;28;20376;-62
2021/03/13 05:27:51;;;;;;;;;;;7.50;99.90;;;;;;5013954;28;19937;-63
2021/03/13 05:30:18;;;;;;;;;;;7.50;99.90;;;;;;5013896;28;20372;-62
2021/03/13 05:32:44;;;;;;;;;;;7.40;99.90;;;;;;5014377;28;19932;-62
2021/03/13 05:35:12;;;;;;;;;;;7.50;99.90;;;;;;5016109;28;19933;-62
2021/03/13 05:37:39;;;;;;;;;;;7.50;99.90;;;;;;5016406;28;19932;-61
2021/03/13 05:40:06;;;;;;;;;;;7.50;99.90;;;;;;5018998;28;19925;-62
2021/03/13 05:42:34;;;;;;;;;;;7.60;99.90;;;;;;5019635;28;19937;-62
2021/03/13 05:45:00;;;;;;;;;;;7.60;99.90;;;;;;5020520;28;20059;-62
2021/03/13 05:47:27;;;;;;;;;;;7.60;99.90;;;;;;5017182;28;19996;-62
2021/03/13 05:49:56;;;;;;;;;;;7.60;99.90;;;;;;5014728;28;20343;-63
2021/03/13 05:52:24;;;;;;;;;;;7.70;99.90;;;;;;5015276;28;19930;-61
2021/03/13 05:54:50;;;;;;;;;;;7.70;99.90;;;;;;5014893;28;19925;-63
2021/03/13 05:57:16;;;;;;;;;;;7.70;99.90;;;;;;5014006;28;20371;-61
2021/03/13 05:59:43;;;;;;;;;;;7.70;99.90;;;;;;5014203;28;19925;-62
2021/03/13 06:02:09;;;;;;;;;;;7.70;99.90;;;;;;5014386;28;19929;-62
2021/03/13 06:04:35;;;;;;;;;;;7.80;99.90;;;;;;5015011;28;20256;-62
2021/03/13 06:07:02;;;;;;;;;;;7.80;99.90;;;;;;5014093;28;19925;-62
2021/03/13 06:09:28;;;;;;;;;;;7.80;99.90;;;;;;5013525;28;19925;-62
2021/03/13 06:11:54;;;;;;;;;;;7.90;99.90;;;;;;5013867;28;19933;-61
2021/03/13 06:14:20;;;;;;;;;;;7.90;99.90;;;;;;5014002;28;19925;-61
2021/03/13 06:16:47;;;;;;;;;;;8.00;99.90;;;;;;5013836;28;20001;-61
2021/03/13 06:19:13;;;;;;;;;;;8.00;99.90;;;;;;5013572;28;20012;-61
2021/03/13 06:21:40;;;;;;;;;;;8.00;99.90;;;;;;5013785;28;20217;-60
2021/03/13 06:24:13;;;;;;;;;;;8.10;99.90;;;;;;5013649;28;19926;-61
2021/03/13 06:26:50;;;;;;;;;;;8.10;99.90;;;;;;5013628;28;19948;-61
2021/03/13 06:29:16;;;;;;;;;;;8.10;99.90;;;;;;5020957;28;19929;-62
2021/03/13 06:31:42;;;;;;;;;;;8.20;99.90;;;;;;5019539;28;20383;-61
2021/03/13 06:34:24;;;;;;;;;;;8.20;99.90;;;;;;5013407;28;19980;-61
2021/03/13 06:36:50;;;;;;;;;;;8.20;99.90;;;;;;5013813;28;19925;-61
2021/03/13 06:39:16;;;;;;;;;;;8.30;99.90;;;;;;5013610;28;19925;-61
2021/03/13 06:41:42;;;;;;;;;;;8.40;99.90;;;;;;5015190;28;19983;-61
2021/03/13 06:44:14;;;;;;;;;;;8.40;99.90;;;;;;5014349;28;19949;-62
2021/03/13 06:46:40;;;;;;;;;;;8.50;99.90;;;;;;5013853;28;19925;-61
2021/03/13 06:49:06;;;;;;;;;;;8.50;99.90;;;;;;5013303;28;20349;-61
2021/03/13 06:51:32;;;;;;;;;;;8.60;99.90;;;;;;5013079;28;19929;-61
2021/03/13 06:54:03;;;;;;;;;;;8.70;99.90;;;;;;5013412;28;19925;-63
2021/03/13 06:56:30;;;;;;;;;;;8.70;99.90;;;;;;5013127;28;19987;-61
2021/03/13 06:58:57;;;;;;;;;;;8.80;99.90;;;;;;5013158;28;19926;-62
2021/03/13 07:01:28;;;;;;;;;;;8.80;99.90;;;;;;5012956;28;20375;-62
2021/03/13 07:03:54;;;;;;;;;;;8.70;99.90;;;;;;5014086;28;19984;-62
2021/03/13 07:06:21;;;;;;;;;;;8.70;99.90;;;;;;5013836;28;19929;-62
2021/03/13 07:08:47;;;;;;;;;;;8.80;99.90;;;;;;5013369;28;19933;-62
2021/03/13 07:11:15;;;;;;;;;;;8.90;99.90;;;;;;5013620;28;20021;-62
2021/03/13 07:13:42;;;;;;;;;;;9.10;99.90;;;;;;5012819;28;20372;-62
2021/03/13 07:16:24;;;;;;;;;;;9.20;99.90;;;;;;5016510;28;20327;-62
2021/03/13 07:18:51;;;;;;;;;;;9.30;99.90;;;;;;5016588;28;19973;-60
2021/03/13 07:21:18;;;;;;;;;;;9.40;99.90;;;;;;5016676;28;19929;-62
2021/03/13 07:23:45;;;;;;;;;;;9.50;99.90;;;;;;5016613;28;20020;-62
2021/03/13 07:26:11;;;;;;;;;;;9.60;99.90;;;;;;5016240;28;19925;-62
2021/03/13 07:28:39;;;;;;;;;;;10.20;99.90;;;;;;5016336;28;19999;-63
2021/03/13 07:31:06;;;;;;;;;;;11.10;99.90;;;;;;5016737;28;19972;-63
2021/03/13 07:33:32;;;;;;;;;;;11.90;99.90;;;;;;5016260;28;19938;-63
2021/03/13 07:35:59;;;;;;;;;;;12.20;99.90;;;;;;5016394;28;19984;-63
2021/03/13 07:38:27;;;;;;;;;;;12.40;99.90;;;;;;5016417;28;19944;-63
2021/03/13 07:40:54;;;;;;;;;;;12.20;99.90;;;;;;5016966;28;20296;-63
2021/03/13 07:43:21;;;;;;;;;;;12.60;99.90;;;;;;5015894;28;20331;-63
2021/03/13 07:45:47;;;;;;;;;;;13.10;99.90;;;;;;5020491;28;20044;-63
2021/03/13 07:48:14;;;;;;;;;;;13.10;99.90;;;;;;5019265;28;20334;-63
2021/03/13 07:50:41;;;;;;;;;;;12.50;99.90;;;;;;5015971;28;19952;-63
2021/03/13 07:53:09;;;;;;;;;;;12.00;99.90;;;;;;5015848;28;19941;-63
2021/03/13 07:55:36;;;;;;;;;;;11.40;99.90;;;;;;5016000;28;19926;-63
2021/03/13 07:58:02;;;;;;;;;;;10.90;99.90;;;;;;5016211;28;20028;-63
2021/03/13 08:00:40;;;;;;;;;;;11.00;99.90;;;;;;5015994;28;19972;-62
2021/03/13 08:03:28;;;;;;;;;;;10.70;99.90;;;;;;5015743;28;19925;-63
2021/03/13 08:05:55;;;;;;;;;;;10.70;99.90;;;;;;5015531;28;19925;-62
2021/03/13 08:08:33;;;;;;;;;;;10.50;99.90;;;;;;5016155;28;19925;-61
2021/03/13 08:10:59;;;;;;;;;;;10.40;99.90;;;;;;5015764;28;19929;-62
2021/03/13 08:13:44;;;;;;;;;;;10.30;99.90;;;;;;5015761;28;19925;-62
2021/03/13 08:16:11;;;;;;;;;;;10.30;99.90;;;;;;5016497;28;19925;-62
2021/03/13 08:18:38;;;;;;;;;;;10.40;99.90;;;;;;5015473;28;19925;-62
2021/03/13 08:21:19;;;;;;;;;;;10.60;99.90;;;;;;5015589;28;19932;-63
2021/03/13 08:23:47;;;;;;;;;;;10.80;99.90;;;;;;5015063;28;19925;-62
2021/03/13 08:26:13;;;;;;;;;;;10.80;99.90;;;;;;5015174;28;20437;-62
2021/03/13 08:28:56;;;;;;;;;;;10.90;99.90;;;;;;5015739;28;19926;-62
2021/03/13 08:31:40;;;;;;;;;;;10.90;99.90;;;;;;5015359;28;19986;-62
2021/03/13 08:34:30;;;;;;;;;;;11.10;99.90;;;;;;5015288;28;19925;-62
2021/03/13 08:36:56;;;;;;;;;;;11.00;99.90;;;;;;5004769;28;19926;-62
2021/03/13 08:39:23;;;;;;;;;;;10.90;99.90;;;;;;5015082;28;19976;-63
2021/03/13 08:41:50;;;;;;;;;;;10.70;99.90;;;;;;5015902;28;19947;-62
2021/03/13 08:44:27;;;;;;;;;;;10.50;99.90;;;;;;5015364;28;20327;-62
2021/03/13 08:46:54;;;;;;;;;;;10.50;99.90;;;;;;5016303;28;19933;-62
2021/03/13 08:49:36;;;;;;;;;;;10.50;99.90;;;;;;5015977;28;19976;-62
2021/03/13 08:52:22;;;;;;;;;;;10.50;99.90;;;;;;5015450;28;20307;-62
2021/03/13 08:54:50;;;;;;;;;;;10.50;99.90;;;;;;5016043;28;20336;-62
2021/03/13 08:57:16;;;;;;;;;;;10.40;99.90;;;;;;5015798;28;19932;-62
2021/03/13 08:59:43;;;;;;;;;;;10.40;99.90;;;;;;5015662;28;19930;-62
2021/03/13 09:02:11;;;;;;;;;;;10.30;99.90;;;;;;5015515;28;19991;-62
2021/03/13 09:04:38;;;;;;;;;;;10.40;99.90;;;;;;5014997;28;20403;-63
2021/03/13 09:07:05;;;;;;;;;;;10.40;99.90;;;;;;5014909;28;19933;-62
2021/03/13 09:09:32;;;;;;;;;;;10.40;99.90;;;;;;5014640;28;19980;-63
2021/03/13 09:11:59;;;;;;;;;;;10.40;99.90;;;;;;5018161;28;19927;-63
2021/03/13 09:14:26;;;;;;;;;;;10.40;99.90;;;;;;5021937;28;19979;-62
2021/03/13 09:16:52;;;;;;;;;;;10.30;99.90;;;;;;5015092;28;20304;-61
2021/03/13 09:19:19;;;;;;;;;;;10.30;99.90;;;;;;5014490;28;19933;-61
2021/03/13 09:21:46;;;;;;;;;;;10.40;99.90;;;;;;5014547;28;20336;-61
2021/03/13 09:24:13;;;;;;;;;;;10.30;99.90;;;;;;5014841;28;19937;-62
2021/03/13 09:26:40;;;;;;;;;;;10.40;99.90;;;;;;5014487;28;19926;-62
2021/03/13 09:29:07;;;;;;;;;;;10.40;99.90;;;;;;5014398;28;19925;-62
2021/03/13 09:31:33;;;;;;;;;;;10.50;99.90;;;;;;5014538;28;19933;-62
2021/03/13 09:34:12;;;;;;;;;;;10.60;99.90;;;;;;5014692;28;19927;-62
2021/03/13 09:36:38;;;;;;;;;;;10.70;99.90;;;;;;5014311;28;19932;-62
2021/03/13 09:39:04;;;;;;;;;;;10.70;99.90;;;;;;5014380;28;19932;-64
2021/03/13 09:41:30;;;;;;;;;;;10.70;99.90;;;;;;5014575;28;19933;-62
2021/03/13 09:43:56;;;;;;;;;;;10.70;99.90;;;;;;5014781;28;19925;-63
2021/03/13 09:46:24;;;;;;;;;;;10.80;99.90;;;;;;5014634;28;20343;-63
2021/03/13 09:48:50;;;;;;;;;;;10.70;99.90;;;;;;5015338;28;19932;-63
2021/03/13 09:51:17;;;;;;;;;;;10.80;99.90;;;;;;5016248;28;19926;-63
2021/03/13 09:53:43;;;;;;;;;;;10.70;99.90;;;;;;5014756;28;19936;-63
2021/03/13 09:56:09;;;;;;;;;;;10.80;99.90;;;;;;5014330;28;19945;-63
2021/03/13 09:58:35;;;;;;;;;;;10.80;99.90;;;;;;5014042;28;20380;-63
2021/03/13 10:01:01;;;;;;;;;;;10.80;99.90;;;;;;5014507;28;19926;-63
2021/03/13 10:03:28;;;;;;;;;;;10.80;99.90;;;;;;5014181;28;19995;-63
2021/03/13 10:05:55;;;;;;;;;;;10.90;99.90;;;;;;5014171;28;19933;-63
2021/03/13 10:08:21;;;;;;;;;;;11.00;99.90;;;;;;5014169;28;19925;-62
2021/03/13 10:10:48;;;;;;;;;;;10.90;99.90;;;;;;5014290;28;20020;-63
2021/03/13 10:13:15;;;;;;;;;;;10.80;99.90;;;;;;5014165;28;19932;-63
2021/03/13 10:15:42;;;;;;;;;;;10.80;99.90;;;;;;5013984;28;19925;-62
2021/03/13 10:18:09;;;;;;;;;;;10.80;99.90;;;;;;5014080;28;19941;-62
2021/03/13 10:20:37;;;;;;;;;;;10.70;99.90;;;;;;5014163;28;20376;-62
2021/03/13 10:23:04;;;;;;;;;;;10.70;99.90;;;;;;5014981;28;19926;-63
2021/03/13 10:25:31;;;;;;;;;;;10.70;99.90;;;;;;5014740;28;20395;-62
2021/03/13 10:28:02;;;;;;;;;;;10.80;99.90;;;;;;5014494;28;19926;-62
2021/03/13 10:30:28;;;;;;;;;;;10.90;99.90;;;;;;5015034;28;19926;-63
2021/03/13 10:32:54;;;;;;;;;;;10.90;99.90;;;;;;5015683;28;19926;-62
2021/03/13 10:35:22;;;;;;;;;;;10.80;99.90;;;;;;5015856;28;20012;-64
2021/03/13 10:37:50;;;;;;;;;;;10.80;99.90;;;;;;5014127;28;19964;-64
2021/03/13 10:40:32;;;;;;;;;;;10.70;99.90;;;;;;5013798;28;19929;-64
2021/03/13 10:43:17;;;;;;;;;;;10.80;99.90;;;;;;5014192;28;19936;-63
2021/03/13 10:45:43;;;;;;;;;;;10.80;99.90;;;;;;5014118;28;19929;-63
2021/03/13 10:48:10;;;;;;;;;;;10.80;99.90;;;;;;5013706;28;19925;-63
2021/03/13 10:50:37;;;;;;;;;;;10.80;99.90;;;;;;5017123;28;20414;-64
2021/03/13 10:53:18;;;;;;;;;;;11.10;99.90;;;;;;5018115;28;20035;-64
2021/03/13 10:55:45;;;;;;;;;;;11.00;99.90;;;;;;5018428;28;20272;-63
2021/03/13 10:58:11;;;;;;;;;;;11.00;99.90;;;;;;5018291;28;19932;-65
2021/03/13 11:00:37;;;;;;;;;;;10.90;99.90;;;;;;5018214;28;19975;-66
2021/03/13 11:03:03;;;;;;;;;;;11.00;99.90;;;;;;5017875;28;19980;-64
2021/03/13 11:05:32;;;;;;;;;;;10.90;99.90;;;;;;5017838;28;19925;-64
2021/03/13 11:07:58;;;;;;;;;;;11.00;99.90;;;;;;5017885;28;19932;-65
2021/03/13 11:10:24;;;;;;;;;;;10.90;99.90;;;;;;5018255;28;19925;-64
2021/03/13 11:12:51;;;;;;;;;;;10.90;99.90;;;;;;5018229;28;19925;-63
2021/03/13 11:15:17;;;;;;;;;;;10.90;99.90;;;;;;5018252;28;19925;-64
2021/03/13 11:17:43;;;;;;;;;;;10.80;99.90;;;;;;5018340;28;20273;-64
2021/03/13 11:20:10;;;;;;;;;;;11.00;99.90;;;;;;5017620;28;20379;-64
2021/03/13 11:22:36;;;;;;;;;;;11.00;99.90;;;;;;5018279;28;19926;-67
2021/03/13 11:25:02;;;;;;;;;;;11.00;99.90;;;;;;5017870;28;19936;-64
2021/03/13 11:27:28;;;;;;;;;;;11.00;99.90;;;;;;5019070;28;19925;-64
2021/03/13 11:29:56;;;;;;;;;;;11.20;99.90;;;;;;5017594;28;19926;-63
2021/03/13 11:32:22;;;;;;;;;;;11.20;99.90;;;;;;5018067;28;19925;-64
2021/03/13 11:34:48;;;;;;;;;;;11.20;99.90;;;;;;5018034;28;19925;-63
2021/03/13 11:37:14;;;;;;;;;;;11.20;99.90;;;;;;5024230;28;19926;-63
2021/03/13 11:39:40;;;;;;;;;;;11.20;99.90;;;;;;5021621;28;20295;-63
2021/03/13 11:42:06;;;;;;;;;;;11.10;99.90;;;;;;5017620;28;19926;-62
2021/03/13 11:44:32;;;;;;;;;;;11.10;99.90;;;;;;5017354;28;19936;-63
2021/03/13 11:47:00;;;;;;;;;;;11.30;99.90;;;;;;5017449;28;19933;-63
2021/03/13 11:49:26;;;;;;;;;;;11.10;99.90;;;;;;5017294;28;19929;-63
2021/03/13 11:51:52;;;;;;;;;;;11.10;99.90;;;;;;5017315;28;19930;-63
2021/03/13 11:54:18;;;;;;;;;;;11.00;99.90;;;;;;5017097;28;19925;-63
2021/03/13 11:56:44;;;;;;;;;;;11.10;99.90;;;;;;5017345;28;19980;-63
2021/03/13 11:59:10;;;;;;;;;;;11.10;99.90;;;;;;5016959;28;19925;-64
2021/03/13 12:01:36;;;;;;;;;;;11.10;99.90;;;;;;5016553;28;19929;-63
2021/03/13 12:04:03;;;;;;;;;;;11.20;99.90;;;;;;5017667;28;19929;-62
2021/03/13 12:06:29;;;;;;;;;;;11.20;99.90;;;;;;5017175;28;19925;-64
2021/03/13 12:08:55;;;;;;;;;;;11.10;99.90;;;;;;5016226;28;19933;-65
2021/03/13 12:11:21;;;;;;;;;;;11.20;99.90;;;;;;5016904;28;19933;-64
2021/03/13 12:13:47;;;;;;;;;;;11.20;99.90;;;;;;5017197;28;19925;-63
2021/03/13 12:16:13;;;;;;;;;;;11.20;99.90;;;;;;5016674;28;19925;-64
2021/03/13 12:18:39;;;;;;;;;;;11.20;99.90;;;;;;5016550;28;19925;-63
2021/03/13 12:21:06;;;;;;;;;;;11.10;99.90;;;;;;5016379;28;19926;-64
2021/03/13 12:23:32;;;;;;;;;;;11.30;99.90;;;;;;5016531;28;19937;-64
2021/03/13 12:25:58;;;;;;;;;;;11.30;99.90;;;;;;5017287;28;19932;-63
2021/03/13 12:28:24;;;;;;;;;;;11.30;99.90;;;;;;5016441;28;19958;-64
2021/03/13 12:30:50;;;;;;;;;;;11.20;99.90;;;;;;5016365;28;19948;-62
2021/03/13 12:33:16;;;;;;;;;;;11.30;99.90;;;;;;5016454;28;19925;-63
2021/03/13 12:35:42;;;;;;;;;;;11.50;99.90;;;;;;5016409;28;19930;-62
2021/03/13 12:38:09;;;;;;;;;;;11.60;99.90;;;;;;5016126;28;19929;-63
2021/03/13 12:40:37;;;;;;;;;;;11.70;99.90;;;;;;5016335;28;19926;-66
2021/03/13 12:43:03;;;;;;;;;;;11.50;99.90;;;;;;5016280;28;19933;-62
2021/03/13 12:45:29;;;;;;;;;;;11.40;99.90;;;;;;5016241;28;20248;-63
2021/03/13 12:47:56;;;;;;;;;;;11.20;99.90;;;;;;5016373;28;20319;-62
2021/03/13 12:50:22;;;;;;;;;;;11.10;99.90;;;;;;5017066;28;19937;-63
2021/03/13 12:52:48;;;;;;;;;;;10.60;99.90;;;;;;5017564;28;19940;-63
2021/03/13 12:55:15;;;;;;;;;;;10.40;99.90;;;;;;5017162;28;19926;-64
2021/03/13 12:57:41;;;;;;;;;;;10.20;99.90;;;;;;5016648;28;19925;-63
2021/03/13 13:00:08;;;;;;;;;;;10.20;99.90;;;;;;5016522;28;19926;-69
2021/03/13 13:02:35;;;;;;;;;;;10.10;99.90;;;;;;5020440;28;19955;-63
2021/03/13 13:05:01;;;;;;;;;;;9.80;99.90;;;;;;5019265;28;19925;-63
2021/03/13 13:07:27;;;;;;;;;;;9.60;99.90;;;;;;5019363;28;19973;-65
2021/03/13 13:09:53;;;;;;;;;;;9.30;99.90;;;;;;5018531;28;19929;-63
2021/03/13 13:12:20;;;;;;;;;;;9.00;99.90;;;;;;5017839;28;19933;-64
2021/03/13 13:14:47;;;;;;;;;;;8.80;99.90;;;;;;5017230;28;19925;-64
2021/03/13 13:17:13;;;;;;;;;;;8.70;99.90;;;;;;5015837;28;19930;-64
2021/03/13 13:19:39;;;;;;;;;;;8.60;99.90;;;;;;5015463;28;19925;-64
2021/03/13 13:22:05;;;;;;;;;;;8.50;99.90;;;;;;5015824;28;19925;-65
2021/03/13 13:24:31;;;;;;;;;;;8.50;99.90;;;;;;5016088;28;19972;-63
2021/03/13 13:26:57;;;;;;;;;;;8.00;99.90;;;;;;5015642;28;19925;-63
2021/03/13 13:29:24;;;;;;;;;;;7.90;99.90;;;;;;5015978;28;19926;-65
2021/03/13 13:31:50;;;;;;;;;;;7.70;99.90;;;;;;5016374;28;19949;-64
2021/03/13 13:34:16;;;;;;;;;;;7.50;99.90;;;;;;5016064;28;19933;-64
2021/03/13 13:36:43;;;;;;;;;;;7.40;99.90;;;;;;5015252;28;19936;-63
2021/03/13 13:39:09;;;;;;;;;;;7.30;99.90;;;;;;5014299;28;20452;-63
2021/03/13 13:41:35;;;;;;;;;;;7.30;99.90;;;;;;5014600;28;20398;-63
2021/03/13 13:44:01;;;;;;;;;;;7.20;99.90;;;;;;5014401;28;19925;-63
2021/03/13 13:46:28;;;;;;;;;;;7.20;99.90;;;;;;5014590;28;19976;-63
2021/03/13 13:48:55;;;;;;;;;;;7.20;99.90;;;;;;5014401;28;19929;-63
2021/03/13 13:51:21;;;;;;;;;;;7.20;99.90;;;;;;5017141;28;19976;-63
2021/03/13 13:53:47;;;;;;;;;;;7.10;99.90;;;;;;5016538;28;20392;-63
2021/03/13 13:56:13;;;;;;;;;;;7.10;99.90;;;;;;5017247;28;19933;-64
2021/03/13 13:58:40;;;;;;;;;;;7.00;99.90;;;;;;5016374;28;20345;-64
2021/03/13 14:01:06;;;;;;;;;;;7.20;99.90;;;;;;5017138;28;19930;-64
2021/03/13 14:03:32;;;;;;;;;;;7.30;99.90;;;;;;5020724;28;19932;-63
2021/03/13 14:05:58;;;;;;;;;;;7.40;99.90;;;;;;5020063;28;19934;-63
2021/03/13 14:08:24;;;;;;;;;;;7.50;99.90;;;;;;5014415;28;19925;-63
2021/03/13 14:10:51;;;;;;;;;;;7.50;99.90;;;;;;5014034;28;19926;-63
2021/03/13 14:13:17;;;;;;;;;;;7.50;99.90;;;;;;5014283;28;19926;-63
2021/03/13 14:15:43;;;;;;;;;;;7.50;99.90;;;;;;5014218;28;19930;-63
2021/03/13 14:18:09;;;;;;;;;;;7.60;99.90;;;;;;5014901;28;19930;-63
2021/03/13 14:20:36;;;;;;;;;;;7.70;99.90;;;;;;5014158;28;20503;-63
2021/03/13 14:23:02;;;;;;;;;;;7.70;99.90;;;;;;5014852;28;19925;-63
2021/03/13 14:25:28;;;;;;;;;;;7.90;99.90;;;;;;5018579;28;19937;-63
2021/03/13 14:27:54;;;;;;;;;;;8.00;99.90;;;;;;5018678;28;19925;-64
2021/03/13 14:30:20;;;;;;;;;;;8.10;99.90;;;;;;5018066;28;20311;-61
2021/03/13 14:32:46;;;;;;;;;;;8.20;99.90;;;;;;5018853;28;19927;-62
2021/03/13 14:35:15;;;;;;;;;;;8.30;99.90;;;;;;5021803;28;19925;-62
2021/03/13 14:37:42;;;;;;;;;;;8.10;99.90;;;;;;5025618;28;20372;-64
2021/03/13 14:40:09;;;;;;;;;;;8.00;99.90;;;;;;5017960;28;19926;-63
2021/03/13 14:42:35;;;;;;;;;;;7.70;99.90;;;;;;5017940;28;20295;-62
2021/03/13 14:45:01;;;;;;;;;;;7.60;99.90;;;;;;5017908;28;20268;-64
2021/03/13 14:47:27;;;;;;;;;;;7.40;99.90;;;;;;5018026;28;19926;-63
2021/03/13 14:49:53;;;;;;;;;;;7.40;99.90;;;;;;5017863;28;19929;-63
2021/03/13 14:52:19;;;;;;;;;;;7.50;99.90;;;;;;5017915;28;19933;-64
2021/03/13 14:54:46;;;;;;;;;;;7.50;99.90;;;;;;5017794;28;20391;-63
2021/03/13 14:57:12;;;;;;;;;;;7.60;99.90;;;;;;5023175;28;19926;-63
2021/03/13 14:59:38;;;;;;;;;;;7.60;99.90;;;;;;5024180;28;19991;-63
2021/03/13 15:02:04;;;;;;;;;;;7.50;99.90;;;;;;5019705;28;19925;-63
2021/03/13 15:04:30;;;;;;;;;;;7.60;99.90;;;;;;5017137;28;19925;-64
2021/03/13 15:06:56;;;;;;;;;;;7.60;99.90;;;;;;5017214;28;19925;-63
2021/03/13 15:09:22;;;;;;;;;;;7.60;99.90;;;;;;5016942;28;19926;-63
2021/03/13 15:11:49;;;;;;;;;;;7.60;99.90;;;;;;5017973;28;19929;-63
2021/03/13 15:14:15;;;;;;;;;;;7.50;99.90;;;;;;5017822;28;19926;-63
2021/03/13 15:16:41;;;;;;;;;;;7.50;99.90;;;;;;5017337;28;19933;-63
2021/03/13 15:19:07;;;;;;;;;;;7.50;99.90;;;;;;5017094;28;20261;-63
2021/03/13 15:21:34;;;;;;;;;;;7.40;99.90;;;;;;5017901;28;19937;-63
2021/03/13 15:24:00;;;;;;;;;;;7.30;99.90;;;;;;5017860;28;19926;-64
2021/03/13 15:26:26;;;;;;;;;;;7.40;99.90;;;;;;5017405;28;19979;-63
2021/03/13 15:28:53;;;;;;;;;;;7.40;99.90;;;;;;5016682;28;19933;-63
2021/03/13 15:31:20;;;;;;;;;;;7.40;99.90;;;;;;5017113;28;19941;-63
2021/03/13 15:33:47;;;;;;;;;;;7.40;99.90;;;;;;5016951;28;19933;-63
2021/03/13 15:36:13;;;;;;;;;;;7.40;99.90;;;;;;5016263;28;19980;-63
2021/03/13 15:38:39;;;;;;;;;;;7.30;99.90;;;;;;5016929;28;19930;-64
2021/03/13 15:41:05;;;;;;;;;;;7.30;99.90;;;;;;5016884;28;19926;-64
2021/03/13 15:43:33;;;;;;;;;;;7.20;99.90;;;;;;5016913;28;19926;-63
2021/03/13 15:46:00;;;;;;;;;;;7.20;99.90;;;;;;5017046;28;19933;-64
2021/03/13 15:48:26;;;;;;;;;;;7.10;99.90;;;;;;5016664;28;19925;-64
2021/03/13 15:50:52;;;;;;;;;;;7.10;99.90;;;;;;5016364;28;20384;-63
2021/03/13 15:53:18;;;;;;;;;;;7.10;99.90;;;;;;5016768;28;19983;-63
2021/03/13 15:55:44;;;;;;;;;;;7.00;99.90;;;;;;5016758;28;19929;-63
2021/03/13 15:58:10;;;;;;;;;;;7.00;99.90;;;;;;5017406;28;19926;-63
2021/03/13 16:00:36;;;;;;;;;;;7.00;99.90;;;;;;5016343;28;20407;-63
2021/03/13 16:03:04;;;;;;;;;;;7.00;99.90;;;;;;5016231;28;19925;-62
2021/03/13 16:05:30;;;;;;;;;;;6.90;99.90;;;;;;5017103;28;19926;-62
2021/03/13 16:07:56;;;;;;;;;;;7.20;99.90;;;;;;5016138;28;19926;-63
2021/03/13 16:10:22;;;;;;;;;;;7.30;99.90;;;;;;5015994;28;19926;-63
2021/03/13 16:12:48;;;;;;;;;;;7.50;99.90;;;;;;5016679;28;19926;-63
2021/03/13 16:15:15;;;;;;;;;;;7.70;99.90;;;;;;5016405;28;19925;-63
2021/03/13 16:17:43;;;;;;;;;;;7.80;99.90;;;;;;5016149;28;19949;-64
2021/03/13 16:20:10;;;;;;;;;;;7.70;99.90;;;;;;5016252;28;19976;-63
2021/03/13 16:22:37;;;;;;;;;;;7.40;99.90;;;;;;5015845;28;19926;-63
2021/03/13 16:25:03;;;;;;;;;;;7.30;99.90;;;;;;5016387;28;19929;-63
2021/03/13 16:27:29;;;;;;;;;;;7.10;99.90;;;;;;5016395;28;19926;-62
2021/03/13 16:29:55;;;;;;;;;;;7.10;99.90;;;;;;5017528;28;20032;-62
2021/03/13 16:32:21;;;;;;;;;;;7.00;99.90;;;;;;5023159;28;20368;-62
2021/03/13 16:34:47;;;;;;;;;;;6.90;99.90;;;;;;5023696;28;19925;-63
2021/03/13 16:37:14;;;;;;;;;;;6.90;99.90;;;;;;5022061;28;19929;-63
2021/03/13 16:39:40;;;;;;;;;;;6.90;99.90;;;;;;5018412;28;19925;-61
2021/03/13 16:42:07;;;;;;;;;;;7.00;99.90;;;;;;5016365;28;20380;-63
2021/03/13 16:44:33;;;;;;;;;;;7.00;99.90;;;;;;5016476;28;19930;-64
2021/03/13 16:46:59;;;;;;;;;;;7.10;99.90;;;;;;5014547;28;20376;-64
2021/03/13 16:49:25;;;;;;;;;;;7.00;99.90;;;;;;5015766;28;20304;-64
2021/03/13 16:51:51;;;;;;;;;;;7.10;99.90;;;;;;5016029;28;19933;-64
2021/03/13 16:54:18;;;;;;;;;;;7.10;99.90;;;;;;5015812;28;19929;-63
2021/03/13 16:56:44;;;;;;;;;;;7.10;99.90;;;;;;5016102;28;19930;-64
2021/03/13 16:59:10;;;;;;;;;;;7.00;99.90;;;;;;5015749;28;20012;-64
2021/03/13 17:01:37;;;;;;;;;;;7.00;99.90;;;;;;5015575;28;19925;-64
2021/03/13 17:04:03;;;;;;;;;;;6.80;99.90;;;;;;5015265;28;19926;-62
2021/03/13 17:06:29;;;;;;;;;;;6.70;99.90;;;;;;5015148;28;19929;-62
2021/03/13 17:08:55;;;;;;;;;;;6.70;99.90;;;;;;5014588;28;19933;-62
2021/03/13 17:11:22;;;;;;;;;;;6.80;99.90;;;;;;5015201;28;19933;-62
2021/03/13 17:13:48;;;;;;;;;;;6.80;99.90;;;;;;5014953;28;20399;-62
2021/03/13 17:16:14;;;;;;;;;;;6.70;99.90;;;;;;5015626;28;19929;-61
2021/03/13 17:18:40;;;;;;;;;;;6.60;99.90;;;;;;5015075;28;19929;-62
2021/03/13 17:21:06;;;;;;;;;;;6.60;99.90;;;;;;5014870;28;19932;-62
2021/03/13 17:23:32;;;;;;;;;;;6.60;99.90;;;;;;5014689;28;19925;-62
2021/03/13 17:25:58;;;;;;;;;;;6.60;99.90;;;;;;5014972;28;19960;-62
2021/03/13 17:28:25;;;;;;;;;;;6.50;99.90;;;;;;5014678;28;19956;-62
2021/03/13 17:30:51;;;;;;;;;;;6.50;99.90;;;;;;5014817;28;19925;-62
2021/03/13 17:33:17;;;;;;;;;;;6.40;99.90;;;;;;5015186;28;19926;-62
2021/03/13 17:35:43;;;;;;;;;;;6.50;99.90;;;;;;5014860;28;19930;-61
2021/03/13 17:38:09;;;;;;;;;;;6.50;99.90;;;;;;5014982;28;19926;-61
2021/03/13 17:40:35;;;;;;;;;;;6.50;99.90;;;;;;5014969;28;19925;-63
2021/03/13 17:43:02;;;;;;;;;;;6.50;99.90;;;;;;5014892;28;19925;-61
2021/03/13 17:45:28;;;;;;;;;;;6.50;99.90;;;;;;5014757;28;19968;-61
2021/03/13 17:47:54;;;;;;;;;;;6.70;99.90;;;;;;5016687;28;19930;-61
2021/03/13 17:50:20;;;;;;;;;;;6.70;99.90;;;;;;5015484;28;19929;-64
2021/03/13 17:52:46;;;;;;;;;;;6.70;99.90;;;;;;5015546;28;19926;-65
2021/03/13 17:55:14;;;;;;;;;;;6.80;99.90;;;;;;5015453;28;19932;-64
2021/03/13 17:57:41;;;;;;;;;;;6.70;99.90;;;;;;5015130;28;19926;-64
2021/03/13 18:00:07;;;;;;;;;;;6.70;99.90;;;;;;5015642;28;19925;-65
2021/03/13 18:02:34;;;;;;;;;;;6.70;99.90;;;;;;5015673;28;20408;-64
2021/03/13 18:05:00;;;;;;;;;;;6.80;99.90;;;;;;5015657;28;20292;-64
2021/03/13 18:07:27;;;;;;;;;;;6.70;99.90;;;;;;5015305;28;20331;-64
2021/03/13 18:09:54;;;;;;;;;;;6.70;99.90;;;;;;5014348;28;22556;-63
2021/03/13 18:12:20;;;;;;;;;;;6.70;99.90;;;;;;5015622;28;19980;-65
2021/03/13 18:14:47;;;;;;;;;;;6.60;99.90;;;;;;5015559;28;19930;-63
2021/03/13 18:17:13;;;;;;;;;;;6.70;99.90;;;;;;5015361;28;19933;-64
2021/03/13 18:19:39;;;;;;;;;;;6.70;99.90;;;;;;5015428;28;19926;-66
2021/03/13 18:22:06;;;;;;;;;;;6.70;99.90;;;;;;5015053;28;19926;-63
2021/03/13 18:24:32;;;;;;;;;;;6.70;99.90;;;;;;5014562;28;20303;-64
2021/03/13 18:26:58;;;;;;;;;;;6.70;99.90;;;;;;5015405;28;19926;-63
2021/03/13 18:29:24;;;;;;;;;;;6.80;99.90;;;;;;5014728;28;19929;-64
2021/03/13 18:31:50;;;;;;;;;;;6.80;99.90;;;;;;5015191;28;19926;-65
2021/03/13 18:34:16;;;;;;;;;;;6.80;99.90;;;;;;5014820;28;20244;-64
2021/03/13 18:36:43;;;;;;;;;;;6.80;99.90;;;;;;5014664;28;20407;-65
2021/03/13 18:39:09;;;;;;;;;;;6.80;99.90;;;;;;5014808;28;19937;-65
2021/03/13 18:41:35;;;;;;;;;;;6.70;99.90;;;;;;5014361;28;19925;-63
2021/03/13 18:44:01;;;;;;;;;;;6.70;99.90;;;;;;5014724;28;19925;-64
2021/03/13 18:46:27;;;;;;;;;;;6.70;99.90;;;;;;5014935;28;19925;-63
2021/03/13 18:48:53;;;;;;;;;;;6.60;99.90;;;;;;5014139;28;19952;-65
2021/03/13 18:51:20;;;;;;;;;;;6.70;99.90;;;;;;5014535;28;19934;-65
2021/03/13 18:53:46;;;;;;;;;;;6.60;99.90;;;;;;5014742;28;19925;-63
2021/03/13 18:56:13;;;;;;;;;;;6.60;99.90;;;;;;5014904;28;19948;-65
2021/03/13 18:58:39;;;;;;;;;;;6.50;99.90;;;;;;5014435;28;20300;-65
2021/03/13 19:01:05;;;;;;;;;;;6.50;99.90;;;;;;5014665;28;19980;-64
2021/03/13 19:03:31;;;;;;;;;;;6.50;99.90;;;;;;5014403;28;19937;-65
2021/03/13 19:05:57;;;;;;;;;;;6.60;99.90;;;;;;5014980;28;19937;-64
2021/03/13 19:08:23;;;;;;;;;;;6.70;99.90;;;;;;5015645;28;20381;-64
2021/03/13 19:10:50;;;;;;;;;;;6.60;99.90;;;;;;5018112;28;20319;-64
2021/03/13 19:13:16;;;;;;;;;;;6.60;99.90;;;;;;5018304;28;19932;-64
2021/03/13 19:15:42;;;;;;;;;;;6.50;99.90;;;;;;5018580;28;19925;-65
2021/03/13 19:18:09;;;;;;;;;;;6.60;99.90;;;;;;5018062;28;19933;-63
2021/03/13 19:20:35;;;;;;;;;;;6.60;99.90;;;;;;5019280;28;20356;-63
2021/03/13 19:23:01;;;;;;;;;;;6.50;99.90;;;;;;5019115;28;19933;-64
2021/03/13 19:25:27;;;;;;;;;;;6.60;99.90;;;;;;5017666;28;20045;-64